Time;durP1;ratioP1;P1;durP2;ratioP2;P2;SDS_P1;SDS_P2;PMS_P1;PMS_P2;Temp;Humidity;BMP_temperature;BMP_pressure;BME280_temperature;BME280_humidity;BME280_pressure;Samples;Min_cycle;Max_cycle;Signal;HPM_P1;HPM_P2
2022/09/15 00:01:29;;;;;;;5.82;1.98;;;15.30;99.90;;;;;;5022548;28;20045;-74
2022/09/15 00:03:55;;;;;;;3.85;1.70;;;15.30;99.90;;;;;;4997808;28;20042;-74
2022/09/15 00:06:21;;;;;;;5.55;2.00;;;15.30;99.90;;;;;;5001390;28;20510;-74
2022/09/15 00:08:47;;;;;;;4.70;1.40;;;15.20;99.90;;;;;;5000342;28;20554;-74
2022/09/15 00:11:17;;;;;;;5.22;1.80;;;15.30;99.90;;;;;;5017884;28;20153;-74
2022/09/15 00:13:43;;;;;;;3.20;1.90;;;15.30;99.90;;;;;;4997752;28;20037;-74
2022/09/15 00:16:10;;;;;;;4.03;1.70;;;15.30;99.90;;;;;;5005303;28;20569;-74
2022/09/15 00:18:37;;;;;;;4.30;1.05;;;15.30;99.90;;;;;;5000878;28;20045;-74
2022/09/15 00:21:09;;;;;;;2.10;1.33;;;15.30;99.90;;;;;;5020458;28;20048;-74
2022/09/15 00:23:36;;;;;;;1.70;0.98;;;15.30;99.90;;;;;;4997317;28;20084;-74
2022/09/15 00:26:04;;;;;;;4.35;1.45;;;15.30;99.90;;;;;;5021147;28;20041;-74
2022/09/15 00:28:30;;;;;;;3.55;0.93;;;15.30;99.90;;;;;;5004078;28;20338;-74
2022/09/15 00:30:56;;;;;;;5.35;2.03;;;15.30;99.90;;;;;;5001287;28;20377;-74
2022/09/15 00:33:22;;;;;;;4.00;1.20;;;15.30;99.90;;;;;;4991944;28;20107;-74
2022/09/15 00:35:49;;;;;;;3.92;1.10;;;15.30;99.90;;;;;;4995965;28;20117;-74
2022/09/15 00:38:17;;;;;;;4.28;1.42;;;15.30;99.90;;;;;;5006247;28;20510;-74
2022/09/15 00:40:48;;;;;;;5.85;1.20;;;15.30;99.90;;;;;;4996737;28;20046;-76
2022/09/15 00:43:16;;;;;;;6.13;1.23;;;15.30;99.90;;;;;;4999011;28;20124;-74
2022/09/15 00:45:42;;;;;;;3.83;1.65;;;15.30;99.90;;;;;;5002097;28;20069;-74
2022/09/15 00:48:23;;;;;;;7.20;1.70;;;15.30;99.90;;;;;;5007859;28;20530;-74
2022/09/15 00:50:54;;;;;;;3.47;1.38;;;15.30;99.90;;;;;;4995351;28;20045;-73
2022/09/15 00:53:22;;;;;;;4.63;1.38;;;15.40;99.90;;;;;;5000091;28;20053;-74
2022/09/15 00:55:49;;;;;;;2.75;1.15;;;15.30;99.90;;;;;;5005682;28;20111;-74
2022/09/15 00:58:29;;;;;;;3.85;0.90;;;15.40;99.90;;;;;;5000684;28;20041;-74
2022/09/15 01:01:01;;;;;;;4.38;1.00;;;15.30;99.90;;;;;;4998589;28;20270;-74
2022/09/15 01:03:32;;;;;;;4.22;1.02;;;15.40;99.90;;;;;;5001031;28;20057;-74
2022/09/15 01:06:07;;;;;;;6.07;0.98;;;15.40;99.90;;;;;;4999479;28;20120;-74
2022/09/15 01:09:00;;;;;;;6.20;0.82;;;15.30;99.90;;;;;;5019258;28;20079;-74
2022/09/15 01:11:26;;;;;;;2.55;0.75;;;15.40;99.90;;;;;;4957131;28;20061;-74
2022/09/15 01:13:52;;;;;;;2.33;0.73;;;15.40;99.90;;;;;;4999921;28;20044;-74
2022/09/15 01:16:45;;;;;;;3.00;0.60;;;15.30;99.90;;;;;;5021498;28;20185;-74
2022/09/15 01:19:31;;;;;;;3.47;0.70;;;15.40;99.90;;;;;;5023585;28;20360;-74
2022/09/15 01:22:30;;;;;;;4.30;0.70;;;15.30;99.90;;;;;;5020340;28;20076;-74
2022/09/15 01:25:26;;;;;;;3.13;0.80;;;15.30;99.90;;;;;;5025520;28;20037;-74
2022/09/15 01:28:07;;;;;;;2.22;0.52;;;15.40;99.90;;;;;;5005773;28;20041;-74
2022/09/15 01:30:45;;;;;;;1.52;0.40;;;15.30;99.90;;;;;;5001851;28;20072;-74
2022/09/15 01:33:38;;;;;;;1.20;0.50;;;15.30;99.90;;;;;;5000810;28;20041;-74
2022/09/15 01:36:12;;;;;;;1.33;0.50;;;15.30;99.90;;;;;;5020091;28;20405;-74
2022/09/15 01:39:02;;;;;;;3.60;0.45;;;15.30;99.90;;;;;;5025655;28;20103;-74
2022/09/15 01:41:47;;;;;;;5.20;1.20;;;15.30;99.90;;;;;;4998872;28;20045;-74
2022/09/15 01:44:18;;;;;;;5.88;0.57;;;15.30;99.90;;;;;;5003591;28;20064;-74
2022/09/15 01:46:51;;;;;;;2.95;0.98;;;15.30;99.90;;;;;;5023185;23;20081;-69
2022/09/15 01:49:22;;;;;;;1.88;0.40;;;15.20;99.90;;;;;;5025739;28;20059;-68
2022/09/15 01:51:50;;;;;;;5.03;0.40;;;15.20;99.90;;;;;;5021267;28;20042;-69
2022/09/15 01:54:21;;;;;;;3.38;0.60;;;15.20;99.90;;;;;;5007177;28;20088;-68
2022/09/15 01:56:46;;;;;;;5.93;0.98;;;15.10;99.90;;;;;;5008138;28;20478;-69
2022/09/15 01:59:12;;;;;;;3.10;0.47;;;15.10;99.90;;;;;;5022971;28;20033;-69
2022/09/15 02:02:00;;;;;;;3.92;0.80;;;15.10;99.90;;;;;;4997184;28;20056;-69
2022/09/15 02:04:37;;;;;;;3.65;0.82;;;15.10;99.90;;;;;;5023858;28;20072;-68
2022/09/15 02:07:27;;;;;;;4.03;0.52;;;15.00;99.90;;;;;;5005749;28;20045;-69
2022/09/15 02:10:01;;;;;;;3.63;0.55;;;15.00;99.90;;;;;;5024926;28;20407;-69
2022/09/15 02:13:02;;;;;;;2.92;0.68;;;15.00;99.90;;;;;;5018603;28;20053;-69
2022/09/15 02:15:35;;;;;;;1.98;0.65;;;15.00;99.90;;;;;;5021316;28;20276;-69
2022/09/15 02:18:05;;;;;;;3.97;0.82;;;15.00;99.90;;;;;;5003394;28;20042;-69
2022/09/15 02:20:37;;;;;;;1.88;0.40;;;15.00;99.90;;;;;;5023818;28;20081;-69
2022/09/15 02:23:35;;;;;;;3.97;0.40;;;15.00;99.90;;;;;;5002875;28;20041;-69
2022/09/15 02:26:07;;;;;;;2.85;0.73;;;15.00;99.90;;;;;;4988052;28;20568;-68
2022/09/15 02:28:37;;;;;;;5.38;1.13;;;15.00;99.90;;;;;;5020507;28;20218;-68
2022/09/15 02:31:07;;;;;;;1.02;0.50;;;15.00;99.90;;;;;;5024732;28;20129;-68
2022/09/15 02:33:38;;;;;;;1.23;0.38;;;14.90;99.90;;;;;;5002010;28;20113;-69
2022/09/15 02:36:04;;;;;;;3.58;0.60;;;14.90;99.90;;;;;;5005913;28;20103;-69
2022/09/15 02:38:36;;;;;;;3.05;0.55;;;14.90;99.90;;;;;;5004630;28;20510;-68
2022/09/15 02:41:04;;;;;;;3.88;0.93;;;14.90;99.90;;;;;;5028231;28;20049;-68
2022/09/15 02:43:30;;;;;;;5.28;0.40;;;14.90;99.90;;;;;;5018149;28;20089;-69
2022/09/15 02:45:55;;;;;;;3.25;0.40;;;14.90;99.90;;;;;;5026409;28;20384;-68
2022/09/15 02:48:21;;;;;;;1.80;0.52;;;14.90;99.90;;;;;;5008678;28;20135;-69
2022/09/15 02:50:47;;;;;;;2.60;0.30;;;14.90;99.90;;;;;;5020325;28;20103;-68
2022/09/15 02:53:12;;;;;;;1.87;0.50;;;14.90;99.90;;;;;;5023785;28;20081;-68
2022/09/15 02:55:38;;;;;;;1.90;1.17;;;14.80;99.90;;;;;;5025827;28;20359;-68
2022/09/15 02:58:04;;;;;;;2.03;0.25;;;14.90;99.90;;;;;;5024993;28;20380;-68
2022/09/15 03:00:30;;;;;;;5.03;0.47;;;14.80;99.90;;;;;;5006735;28;20041;-68
2022/09/15 03:02:57;;;;;;;5.43;0.57;;;14.70;99.90;;;;;;5003259;28;20075;-68
2022/09/15 03:05:28;;;;;;;1.20;0.30;;;14.80;99.90;;;;;;5008874;28;20067;-68
2022/09/15 03:07:54;;;;;;;4.43;0.80;;;14.80;99.90;;;;;;5006562;28;20049;-68
2022/09/15 03:10:22;;;;;;;1.23;0.30;;;14.80;99.90;;;;;;5022493;28;20106;-69
2022/09/15 03:12:50;;;;;;;4.47;0.65;;;14.80;99.90;;;;;;5016463;28;20049;-68
2022/09/15 03:15:19;;;;;;;1.75;0.30;;;14.80;99.90;;;;;;5024428;28;20076;-69
2022/09/15 03:17:47;;;;;;;3.50;0.70;;;14.80;99.90;;;;;;5024721;28;20041;-68
2022/09/15 03:20:26;;;;;;;1.02;0.30;;;14.80;99.90;;;;;;5004936;28;20129;-68
2022/09/15 03:22:53;;;;;;;2.72;0.47;;;14.80;99.90;;;;;;5002241;28;20537;-68
2022/09/15 03:25:18;;;;;;;;;;;14.80;99.90;;;;;;5008560;28;20049;-68
2022/09/15 03:27:44;;;;;;;1.40;0.25;;;14.80;99.90;;;;;;5007802;28;19952;-68
2022/09/15 03:30:14;;;;;;;4.97;0.38;;;14.70;99.90;;;;;;5023445;28;20087;-68
2022/09/15 03:32:39;;;;;;;2.30;0.40;;;14.70;99.90;;;;;;5021213;28;20052;-68
2022/09/15 03:35:06;;;;;;;5.18;0.50;;;14.70;99.90;;;;;;5006022;28;20041;-68
2022/09/15 03:37:32;;;;;;;;;;;14.80;99.90;;;;;;5004119;28;20178;-68
2022/09/15 03:39:58;;;;;;;1.40;0.40;;;14.70;99.90;;;;;;5008079;28;20473;-68
2022/09/15 03:42:26;;;;;;;1.75;0.50;;;14.70;99.90;;;;;;5009693;28;20116;-68
2022/09/15 03:44:51;;;;;;;5.03;0.88;;;14.70;99.90;;;;;;5026627;28;20048;-68
2022/09/15 03:47:17;;;;;;;3.42;0.70;;;14.70;99.90;;;;;;5023277;28;20033;-68
2022/09/15 03:49:43;;;;;;;3.60;0.50;;;14.70;99.90;;;;;;5020556;28;20524;-68
2022/09/15 03:52:08;;;;;;;2.90;0.50;;;14.70;99.90;;;;;;5024116;28;20045;-68
2022/09/15 03:54:34;;;;;;;5.40;0.50;;;14.70;99.90;;;;;;5007921;28;20121;-68
2022/09/15 03:57:00;;;;;;;3.10;0.65;;;14.70;99.90;;;;;;5015352;28;20041;-69
2022/09/15 03:59:26;;;;;;;1.90;0.52;;;14.70;99.90;;;;;;5003396;28;20347;-68
2022/09/15 04:01:51;;;;;;;4.32;0.88;;;14.60;99.90;;;;;;5025433;28;20383;-68
2022/09/15 04:04:17;;;;;;;4.53;1.13;;;14.60;99.90;;;;;;5008567;28;20428;-68
2022/09/15 04:06:43;;;;;;;2.30;0.43;;;14.60;99.90;;;;;;5009404;28;20045;-67
2022/09/15 04:09:09;;;;;;;5.32;1.00;;;14.60;99.90;;;;;;5022353;28;20041;-69
2022/09/15 04:11:36;;;;;;;3.67;0.30;;;14.60;99.90;;;;;;5018534;28;20484;-67
2022/09/15 04:14:02;;;;;;;2.53;0.63;;;14.60;99.90;;;;;;5021498;28;20142;-69
2022/09/15 04:16:27;;;;;;;3.22;0.57;;;14.60;99.90;;;;;;5022796;28;20098;-68
2022/09/15 04:18:54;;;;;;;2.67;0.47;;;14.60;99.90;;;;;;5007326;28;20045;-69
2022/09/15 04:21:21;;;;;;;;;;;14.60;99.90;;;;;;5020381;28;20082;-68
2022/09/15 04:23:48;;;;;;;3.75;0.50;;;14.60;99.90;;;;;;5023289;28;20383;-68
2022/09/15 04:26:33;;;;;;;5.30;0.63;;;14.60;99.90;;;;;;5006871;28;20045;-69
2022/09/15 04:29:00;;;;;;;1.17;0.50;;;14.60;99.90;;;;;;5018269;28;20055;-67
2022/09/15 04:31:26;;;;;;;2.72;0.80;;;14.60;99.90;;;;;;5005764;28;20134;-68
2022/09/15 04:33:53;;;;;;;1.55;0.38;;;14.60;99.90;;;;;;5025042;28;20069;-71
2022/09/15 04:36:21;;;;;;;6.53;0.75;;;14.60;99.90;;;;;;5006587;28;20042;-68
2022/09/15 04:38:47;;;;;;;2.95;0.40;;;14.60;99.90;;;;;;5003479;28;20049;-67
2022/09/15 04:41:14;;;;;;;4.55;1.48;;;14.60;99.90;;;;;;5003894;28;20045;-68
2022/09/15 04:43:42;;;;;;;2.70;0.52;;;14.60;99.90;;;;;;5025059;28;20089;-68
2022/09/15 04:46:08;;;;;;;1.90;0.52;;;14.60;99.90;;;;;;5022529;28;20402;-68
2022/09/15 04:48:34;;;;;;;4.47;0.60;;;14.60;99.90;;;;;;5024209;28;20126;-69
2022/09/15 04:51:10;;;;;;;5.93;1.65;;;14.60;99.90;;;;;;5002319;28;20320;-68
2022/09/15 04:53:36;;;;;;;4.30;0.60;;;14.60;99.90;;;;;;5019323;28;20359;-68
2022/09/15 04:56:13;;;;;;;2.75;0.63;;;14.60;99.90;;;;;;5010851;28;20034;-68
2022/09/15 04:58:44;;;;;;;4.13;0.45;;;14.60;99.90;;;;;;5026100;28;20045;-68
2022/09/15 05:01:15;;;;;;;7.22;0.70;;;14.60;99.90;;;;;;5001818;28;20050;-68
2022/09/15 05:03:41;;;;;;;2.28;0.38;;;14.70;99.90;;;;;;5026015;28;20128;-68
2022/09/15 05:06:09;;;;;;;1.85;0.50;;;14.60;99.90;;;;;;5004832;28;20052;-68
2022/09/15 05:08:35;;;;;;;1.05;0.38;;;14.70;99.90;;;;;;5007702;28;20100;-68
2022/09/15 05:11:09;;;;;;;5.53;0.82;;;14.70;99.90;;;;;;4998497;28;20467;-68
2022/09/15 05:13:36;;;;;;;4.13;1.17;;;14.70;99.90;;;;;;5020819;28;20045;-68
2022/09/15 05:16:19;;;;;;;3.60;0.40;;;14.70;99.90;;;;;;5024759;28;20550;-68
2022/09/15 05:18:47;;;;;;;5.05;0.77;;;14.70;99.90;;;;;;5010495;28;20049;-68
2022/09/15 05:21:15;;;;;;;5.25;0.90;;;14.70;99.90;;;;;;5021527;28;20239;-68
2022/09/15 05:23:42;;;;;;;5.93;0.55;;;14.70;99.90;;;;;;5003982;28;20045;-69
2022/09/15 05:26:11;;;;;;;4.75;0.90;;;14.70;99.90;;;;;;5013736;28;20037;-69
2022/09/15 05:28:38;;;;;;;7.28;1.45;;;14.70;99.90;;;;;;5026913;28;20042;-72
2022/09/15 05:31:08;;;;;;;;;;;14.70;99.90;;;;;;5023011;28;20049;-68
2022/09/15 05:33:34;;;;;;;6.47;1.23;;;14.70;99.90;;;;;;5025960;28;19917;-68
2022/09/15 05:36:00;;;;;;;3.60;0.90;;;14.80;99.90;;;;;;5019307;28;20045;-68
2022/09/15 05:38:29;;;;;;;3.85;1.05;;;14.80;99.90;;;;;;5008202;28;20516;-68
2022/09/15 05:41:04;;;;;;;5.55;0.73;;;14.80;99.90;;;;;;5016505;28;20056;-69
2022/09/15 05:43:37;;;;;;;1.98;0.40;;;14.80;99.90;;;;;;5009383;28;20042;-71
2022/09/15 05:46:04;;;;;;;4.25;1.13;;;14.90;99.90;;;;;;5014591;28;20160;-69
2022/09/15 05:48:30;;;;;;;4.53;0.60;;;14.80;99.90;;;;;;5012521;28;20045;-70
2022/09/15 05:50:56;;;;;;;3.35;1.15;;;14.90;99.90;;;;;;5018399;28;20388;-69
2022/09/15 05:53:23;;;;;;;6.88;1.35;;;14.90;99.90;;;;;;4997078;28;20485;-71
2022/09/15 05:55:56;;;;;;;1.55;0.40;;;14.90;99.90;;;;;;5000325;28;20068;-72
2022/09/15 05:58:22;;;;;;;3.40;0.90;;;15.00;99.90;;;;;;4990398;28;20037;-71
2022/09/15 06:00:48;;;;;;;3.00;0.63;;;15.00;99.90;;;;;;5018846;28;20091;-71
2022/09/15 06:03:15;;;;;;;2.70;0.63;;;15.00;99.90;;;;;;5010755;28;20050;-71
2022/09/15 06:05:41;;;;;;;2.10;0.88;;;15.00;99.90;;;;;;5006893;28;20139;-72
2022/09/15 06:08:06;;;;;;;1.23;0.57;;;15.00;99.90;;;;;;5023532;28;20135;-72
2022/09/15 06:10:32;;;;;;;5.03;0.70;;;15.00;99.90;;;;;;5018438;28;20499;-70
2022/09/15 06:12:58;;;;;;;4.30;0.73;;;15.10;99.90;;;;;;5005568;28;20282;-70
2022/09/15 06:15:23;;;;;;;5.10;0.50;;;15.10;99.90;;;;;;5001573;28;20052;-72
2022/09/15 06:17:50;;;;;;;2.83;1.02;;;15.10;99.90;;;;;;5004234;28;20286;-69
2022/09/15 06:20:17;;;;;;;3.78;0.47;;;15.10;99.90;;;;;;5003216;28;20038;-71
2022/09/15 06:22:43;;;;;;;4.22;0.63;;;15.10;99.90;;;;;;5022086;28;20037;-79
2022/09/15 06:25:10;;;;;;;6.30;0.60;;;15.10;99.90;;;;;;5020099;28;20387;-77
2022/09/15 06:27:36;;;;;;;3.10;0.70;;;15.10;99.90;;;;;;5022596;28;20037;-70
2022/09/15 06:30:06;;;;;;;2.25;0.52;;;15.20;99.90;;;;;;5025708;28;20025;-73
2022/09/15 06:32:33;;;;;;;4.43;0.57;;;15.20;99.90;;;;;;5016924;28;20037;-70
2022/09/15 06:35:06;;;;;;;6.72;0.70;;;15.20;99.90;;;;;;5019170;28;20029;-69
2022/09/15 06:37:35;;;;;;;3.45;0.40;;;15.20;99.90;;;;;;5024708;28;20087;-69
2022/09/15 06:40:03;;;;;;;2.33;0.80;;;15.10;99.90;;;;;;5019359;28;20036;-74
2022/09/15 06:42:31;;;;;;;2.63;0.50;;;15.10;99.90;;;;;;4992443;28;20064;-74
2022/09/15 06:44:57;;;;;;;1.65;0.73;;;15.00;99.90;;;;;;5015791;28;20033;-73
2022/09/15 06:47:23;;;;;;;2.40;0.80;;;15.00;99.90;;;;;;5006241;28;20061;-74
2022/09/15 06:49:49;;;;;;;1.38;0.43;;;14.90;99.90;;;;;;5006228;28;20048;-69
2022/09/15 06:52:14;;;;;;;7.05;1.08;;;14.90;99.90;;;;;;4996668;28;20224;-69
2022/09/15 06:54:40;;;;;;;1.83;0.40;;;14.90;99.90;;;;;;5004871;28;20052;-68
2022/09/15 06:57:06;;;;;;;4.43;0.60;;;14.90;99.90;;;;;;4984882;28;20058;-68
2022/09/15 06:59:31;;;;;;;4.13;1.17;;;14.90;99.90;;;;;;5024380;28;20146;-69
2022/09/15 07:01:57;;;;;;;1.55;0.38;;;14.90;99.90;;;;;;5023473;28;20041;-69
2022/09/15 07:04:23;;;;;;;6.55;0.60;;;14.90;99.90;;;;;;5002881;28;20185;-68
2022/09/15 07:06:49;;;;;;;1.92;0.55;;;15.00;99.90;;;;;;5000459;28;20053;-68
2022/09/15 07:09:15;;;;;;;4.32;0.65;;;14.90;99.90;;;;;;5003981;28;20045;-69
2022/09/15 07:11:41;;;;;;;2.75;0.70;;;14.90;99.90;;;;;;5017129;28;20483;-68
2022/09/15 07:14:07;;;;;;;2.60;0.75;;;14.90;99.90;;;;;;5023036;28;20045;-69
2022/09/15 07:16:33;;;;;;;5.93;0.65;;;15.00;99.90;;;;;;5022971;28;20056;-69
2022/09/15 07:19:01;;;;;;;1.35;0.40;;;15.00;99.90;;;;;;5008969;28;20037;-68
2022/09/15 07:21:27;;;;;;;1.42;0.47;;;15.00;99.90;;;;;;5007891;28;20306;-69
2022/09/15 07:23:56;;;;;;;2.65;0.40;;;15.10;99.90;;;;;;5024002;28;20272;-69
2022/09/15 07:26:24;;;;;;;2.15;0.30;;;15.10;99.90;;;;;;5013509;28;20053;-68
2022/09/15 07:28:54;;;;;;;1.05;0.43;;;15.10;99.90;;;;;;5014756;28;20139;-69
2022/09/15 07:31:22;;;;;;;1.63;0.20;;;15.10;99.90;;;;;;5001318;28;20561;-68
2022/09/15 07:33:48;;;;;;;1.02;0.20;;;15.20;99.90;;;;;;5025176;28;20084;-69
2022/09/15 07:36:14;;;;;;;;;;;15.20;99.90;;;;;;5011362;28;20044;-68
2022/09/15 07:38:42;;;;;;;1.52;0.50;;;15.20;99.90;;;;;;5022685;28;19917;-69
2022/09/15 07:41:10;;;;;;;3.80;0.57;;;15.30;99.90;;;;;;5023860;28;20095;-69
2022/09/15 07:43:37;;;;;;;2.78;0.75;;;15.30;99.90;;;;;;5023670;28;20307;-69
2022/09/15 07:46:03;;;;;;;1.70;0.47;;;15.30;99.90;;;;;;5005765;28;20087;-69
2022/09/15 07:48:29;;;;;;;1.98;0.75;;;15.40;99.90;;;;;;5082133;22;20076;-73
2022/09/15 07:50:55;;;;;;;3.42;0.40;;;15.40;99.90;;;;;;5061695;28;20087;-73
2022/09/15 07:53:21;;;;;;;5.95;0.80;;;15.40;99.90;;;;;;5066165;28;20043;-73
2022/09/15 07:55:53;;;;;;;1.70;0.43;;;15.40;99.90;;;;;;5059136;28;20069;-73
2022/09/15 07:58:19;;;;;;;4.97;0.50;;;15.40;99.90;;;;;;5037521;28;20051;-73
2022/09/15 08:00:46;;;;;;;;;;;15.40;99.90;;;;;;5064588;28;20123;-72
2022/09/15 08:03:12;;;;;;;3.47;0.50;;;15.40;99.90;;;;;;5049167;28;20002;-73
2022/09/15 08:05:38;;;;;;;;;;;15.40;99.90;;;;;;5040470;28;20047;-73
2022/09/15 08:08:04;;;;;;;3.28;0.50;;;15.50;99.90;;;;;;5044076;28;19916;-73
2022/09/15 08:10:30;;;;;;;4.10;0.85;;;15.50;99.90;;;;;;5023647;28;20490;-73
2022/09/15 08:12:58;;;;;;;4.93;0.50;;;15.60;99.90;;;;;;5034626;28;20039;-73
2022/09/15 08:15:24;;;;;;;1.42;0.30;;;15.70;99.90;;;;;;5060015;28;20044;-73
2022/09/15 08:17:50;;;;;;;1.92;0.50;;;15.80;99.90;;;;;;5052783;28;20373;-72
2022/09/15 08:20:16;;;;;;;1.55;0.55;;;16.00;99.90;;;;;;5041823;28;20431;-73
2022/09/15 08:22:42;;;;;;;0.98;0.30;;;16.10;99.90;;;;;;5045852;28;20153;-73
2022/09/15 08:25:08;;;;;;;;;;;16.20;99.90;;;;;;5037993;28;20062;-73
2022/09/15 08:27:33;;;;;;;3.28;0.70;;;16.20;99.90;;;;;;5050315;28;19920;-74
2022/09/15 08:29:59;;;;;;;3.10;1.35;;;16.20;99.90;;;;;;5066710;28;20028;-73
2022/09/15 08:32:25;;;;;;;2.85;0.60;;;16.30;99.90;;;;;;5068578;28;20053;-73
2022/09/15 08:34:50;;;;;;;2.85;0.50;;;16.30;99.90;;;;;;5043469;28;20142;-73
2022/09/15 08:37:16;;;;;;;3.05;0.70;;;16.40;99.90;;;;;;5047967;28;20121;-73
2022/09/15 08:39:42;;;;;;;3.13;1.02;;;16.40;99.90;;;;;;5066661;28;20040;-73
2022/09/15 08:42:17;;;;;;;5.47;0.75;;;16.40;99.90;;;;;;5064854;28;20041;-73
2022/09/15 08:45:08;;;;;;;2.22;0.63;;;16.50;99.90;;;;;;5053881;28;20040;-72
2022/09/15 08:47:41;;;;;;;3.35;0.47;;;16.60;99.90;;;;;;5066637;28;20283;-73
2022/09/15 08:50:17;;;;;;;6.22;0.52;;;16.60;99.90;;;;;;5042637;28;20039;-71
2022/09/15 08:53:01;;;;;;;3.72;0.68;;;16.70;99.90;;;;;;5061444;28;20043;-73
2022/09/15 08:55:36;;;;;;;0.70;0.28;;;16.70;99.90;;;;;;5042898;28;20040;-73
2022/09/15 08:58:02;;;;;;;2.47;0.60;;;16.70;99.90;;;;;;5060630;28;20508;-73
2022/09/15 09:00:30;;;;;;;3.42;0.43;;;16.70;99.90;;;;;;5043282;28;20051;-72
2022/09/15 09:03:31;;;;;;;2.10;0.30;;;16.80;99.90;;;;;;5067121;28;20536;-73
2022/09/15 09:06:19;;;;;;;3.30;0.98;;;16.80;99.90;;;;;;5059777;28;20482;-72
2022/09/15 09:08:54;;;;;;;6.57;0.43;;;16.80;99.90;;;;;;5051056;28;20365;-73
2022/09/15 09:11:52;;;;;;;0.60;0.13;;;16.90;99.90;;;;;;5046148;28;20375;-72
2022/09/15 09:14:51;;;;;;;1.75;0.43;;;16.90;99.90;;;;;;5051174;28;20474;-72
2022/09/15 09:17:47;;;;;;;1.88;0.30;;;17.00;99.90;;;;;;5063761;28;20131;-72
2022/09/15 09:20:32;;;;;;;3.88;1.10;;;17.10;99.90;;;;;;5023040;28;20033;-73
2022/09/15 09:23:02;;;;;;;3.85;0.65;;;17.00;99.90;;;;;;5055224;28;20058;-73
2022/09/15 09:25:28;;;;;;;1.52;0.40;;;17.10;99.90;;;;;;5066159;28;20074;-73
2022/09/15 09:27:56;;;;;;;0.55;0.22;;;17.10;99.90;;;;;;5048265;28;20307;-72
2022/09/15 09:30:23;;;;;;;3.10;0.50;;;17.10;99.90;;;;;;5049640;28;20509;-72
2022/09/15 09:33:29;;;;;;;2.42;0.38;;;17.10;99.90;;;;;;5064056;28;20394;-72
2022/09/15 09:35:58;;;;;;;2.65;0.28;;;17.30;99.90;;;;;;5036633;28;20112;-73
2022/09/15 09:38:39;;;;;;;3.35;0.50;;;17.30;99.90;;;;;;5064034;28;20068;-72
2022/09/15 09:41:13;;;;;;;3.17;0.47;;;17.50;99.90;;;;;;5047105;28;20067;-72
2022/09/15 09:43:41;;;;;;;0.98;0.40;;;17.70;99.90;;;;;;5037336;28;20041;-72
2022/09/15 09:46:13;;;;;;;6.10;1.00;;;17.80;99.90;;;;;;5056546;28;20397;-73
2022/09/15 09:49:05;;;;;;;1.85;0.50;;;17.70;99.90;;;;;;5061634;28;20048;-73
2022/09/15 09:51:38;;;;;;;1.95;0.40;;;17.60;99.90;;;;;;5054519;28;20076;-72
2022/09/15 09:54:15;;;;;;;2.70;0.60;;;17.50;99.90;;;;;;5062942;28;20040;-75
2022/09/15 09:56:44;;;;;;;2.28;0.73;;;17.40;99.90;;;;;;5065643;28;20260;-72
2022/09/15 09:59:47;;;;;;;2.05;0.40;;;17.30;99.90;;;;;;5063066;28;20041;-73
2022/09/15 10:02:24;;;;;;;1.75;0.40;;;17.10;99.90;;;;;;5042416;28;20051;-72
2022/09/15 10:05:14;;;;;;;3.55;0.65;;;17.10;99.90;;;;;;5043388;28;20405;-72
2022/09/15 10:07:42;;;;;;;2.72;0.70;;;17.00;99.90;;;;;;5053293;28;20051;-72
2022/09/15 10:10:18;;;;;;;2.60;0.43;;;17.00;99.90;;;;;;5066169;28;20157;-73
2022/09/15 10:12:45;;;;;;;5.40;0.63;;;17.20;99.90;;;;;;5058704;28;20041;-73
2022/09/15 10:15:23;;;;;;;2.90;0.40;;;17.30;99.90;;;;;;5061215;28;20068;-72
2022/09/15 10:17:50;;;;;;;2.03;0.40;;;17.50;99.90;;;;;;5045449;28;20056;-73
2022/09/15 10:20:37;;;;;;;4.65;0.70;;;17.50;99.90;;;;;;5061262;28;20039;-73
2022/09/15 10:23:17;;;;;;;3.35;0.77;;;17.50;99.90;;;;;;5061213;28;20033;-72
2022/09/15 10:25:44;;;;;;;5.85;0.50;;;17.50;99.90;;;;;;5069550;28;20033;-72
2022/09/15 10:28:16;;;;;;;3.28;0.45;;;17.40;99.90;;;;;;5058822;28;20139;-72
2022/09/15 10:30:59;;;;;;;1.58;0.75;;;17.30;99.90;;;;;;5053286;28;20109;-72
2022/09/15 10:33:27;;;;;;;4.70;0.93;;;17.30;99.90;;;;;;5064391;28;20033;-72
2022/09/15 10:35:58;;;;;;;5.82;0.52;;;17.30;99.90;;;;;;5066597;28;20039;-72
2022/09/15 10:38:47;;;;;;;3.00;0.50;;;17.30;99.90;;;;;;5068875;28;20048;-72
2022/09/15 10:41:17;;;;;;;4.25;0.47;;;17.40;99.90;;;;;;5061609;28;20045;-72
2022/09/15 10:44:18;;;;;;;2.08;0.60;;;17.40;99.90;;;;;;5046977;28;20469;-72
2022/09/15 10:47:06;;;;;;;4.95;1.08;;;17.40;99.90;;;;;;4997511;28;20227;-74
2022/09/15 10:50:02;;;;;;;2.92;0.60;;;17.40;99.90;;;;;;5045121;28;20287;-73
2022/09/15 10:52:46;;;;;;;3.28;0.30;;;17.30;99.90;;;;;;5067283;28;20442;-71
2022/09/15 10:55:29;;;;;;;1.38;0.30;;;17.30;99.90;;;;;;5063809;28;20043;-72
2022/09/15 10:58:15;;;;;;;2.88;0.43;;;17.30;99.90;;;;;;5067949;28;20040;-72
2022/09/15 11:01:00;;;;;;;0.57;0.40;;;17.30;99.90;;;;;;5038908;28;20056;-72
2022/09/15 11:03:54;;;;;;;1.50;0.40;;;17.30;99.90;;;;;;5033214;28;20111;-73
2022/09/15 11:06:39;;;;;;;1.10;0.30;;;17.40;99.90;;;;;;5040543;28;20279;-72
2022/09/15 11:09:13;;;;;;;3.88;0.17;;;17.40;99.90;;;;;;5044055;28;20249;-72
2022/09/15 11:12:11;;;;;;;1.42;0.20;;;17.40;99.90;;;;;;5070742;28;20070;-72
2022/09/15 11:14:50;;;;;;;4.10;0.85;;;17.60;99.90;;;;;;5018088;28;20045;-72
2022/09/15 11:17:54;;;;;;;0.65;0.20;;;17.80;99.90;;;;;;5053672;28;20442;-73
2022/09/15 11:20:42;;;;;;;1.15;0.20;;;18.00;99.90;;;;;;5044373;28;20040;-72
2022/09/15 11:23:16;;;;;;;;;;;18.20;99.90;;;;;;5042513;28;20431;-72
2022/09/15 11:26:11;;;;;;;0.65;0.20;;;18.30;99.90;;;;;;5065298;28;20016;-73
2022/09/15 11:28:50;;;;;;;0.25;0.08;;;18.40;99.90;;;;;;5061888;28;20065;-72
2022/09/15 11:31:22;;;;;;;3.25;0.80;;;18.60;99.90;;;;;;5043485;28;20577;-72
2022/09/15 11:33:57;;;;;;;1.30;0.20;;;18.70;99.90;;;;;;5053273;28;20176;-73
2022/09/15 11:36:48;;;;;;;1.00;0.30;;;18.90;99.90;;;;;;5044843;28;20115;-73
2022/09/15 11:39:23;;;;;;;1.20;0.30;;;19.00;99.90;;;;;;5041108;28;20538;-72
2022/09/15 11:42:14;;;;;;;1.88;0.25;;;19.20;99.90;;;;;;5048415;28;20501;-73
2022/09/15 11:44:43;;;;;;;0.32;0.13;;;19.30;99.90;;;;;;5058505;28;20479;-72
2022/09/15 11:47:28;;;;;;;1.73;0.30;;;19.20;99.90;;;;;;5064475;28;20461;-72
2022/09/15 11:49:59;;;;;;;1.77;0.30;;;19.30;99.90;;;;;;5060587;28;20039;-73
2022/09/15 11:52:43;;;;;;;1.02;0.20;;;19.40;99.90;;;;;;5054018;28;20059;-72
2022/09/15 11:55:29;;;;;;;0.63;0.20;;;19.50;99.90;;;;;;5043900;28;20036;-72
2022/09/15 11:58:12;;;;;;;3.22;0.30;;;19.40;99.90;;;;;;5062417;28;20051;-73
2022/09/15 12:00:50;;;;;;;1.17;0.20;;;19.30;99.90;;;;;;5046511;28;20048;-72
2022/09/15 12:03:35;;;;;;;1.30;0.30;;;19.10;99.90;;;;;;5072771;28;20048;-73
2022/09/15 12:06:14;;;;;;;3.30;0.40;;;19.00;99.90;;;;;;5058625;28;20052;-73
2022/09/15 12:09:11;;;;;;;3.40;0.20;;;19.10;99.90;;;;;;5061795;28;20475;-72
2022/09/15 12:11:46;;;;;;;3.63;0.63;;;19.20;99.90;;;;;;5052806;28;20050;-73
2022/09/15 12:14:27;;;;;;;0.98;0.30;;;19.40;99.90;;;;;;5054060;28;20500;-73
2022/09/15 12:16:54;;;;;;;0.98;0.57;;;19.60;99.90;;;;;;5057037;28;20206;-73
2022/09/15 12:19:32;;;;;;;4.85;0.43;;;19.60;99.90;;;;;;5074727;28;20347;-73
2022/09/15 12:22:01;;;;;;;1.77;0.63;;;19.60;99.90;;;;;;5037591;28;20447;-73
2022/09/15 12:24:44;;;;;;;1.60;0.30;;;19.40;99.90;;;;;;5046474;28;20115;-72
2022/09/15 12:27:16;;;;;;;3.92;0.68;;;19.30;99.90;;;;;;5060047;28;20045;-73
2022/09/15 12:29:48;;;;;;;1.48;0.38;;;19.10;99.90;;;;;;5045740;28;20120;-73
2022/09/15 12:32:23;;;;;;;3.10;0.70;;;19.10;99.90;;;;;;5045071;28;20115;-73
2022/09/15 12:35:17;;;;;;;3.17;0.50;;;19.00;99.90;;;;;;5070719;28;20532;-73
2022/09/15 12:37:52;;;;;;;1.13;0.30;;;18.90;99.90;;;;;;5063105;28;20044;-73
2022/09/15 12:40:32;;;;;;;1.40;0.40;;;18.90;99.90;;;;;;5042494;28;20127;-73
2022/09/15 12:43:02;;;;;;;2.97;0.40;;;18.80;99.90;;;;;;5065816;28;20059;-73
2022/09/15 12:45:32;;;;;;;4.30;0.50;;;18.60;99.90;;;;;;5053453;28;20109;-75
2022/09/15 12:48:02;;;;;;;2.30;0.45;;;18.50;99.90;;;;;;5049693;28;20049;-73
2022/09/15 12:50:31;;;;;;;2.03;0.82;;;18.40;99.90;;;;;;5043972;28;20036;-73
2022/09/15 12:53:11;;;;;;;4.15;0.80;;;18.30;99.90;;;;;;5050937;28;20037;-72
2022/09/15 12:55:46;;;;;;;2.45;0.68;;;18.20;99.90;;;;;;5043670;28;20476;-73
2022/09/15 12:58:19;;;;;;;4.32;0.52;;;18.20;99.90;;;;;;5060627;28;20587;-73
2022/09/15 13:00:44;;;;;;;3.45;0.52;;;18.20;99.90;;;;;;5059000;28;20044;-73
2022/09/15 13:03:39;;;;;;;1.20;0.47;;;18.20;99.90;;;;;;5038115;28;20110;-72
2022/09/15 13:06:24;;;;;;;4.53;0.60;;;18.30;99.90;;;;;;5011277;28;20437;-73
2022/09/15 13:08:52;;;;;;;2.55;0.30;;;18.30;99.90;;;;;;5043715;28;20097;-73
2022/09/15 13:11:39;;;;;;;3.60;0.38;;;18.30;99.90;;;;;;5022453;28;20124;-73
2022/09/15 13:14:14;;;;;;;1.65;0.28;;;18.30;99.90;;;;;;5056389;28;20111;-73
2022/09/15 13:16:39;;;;;;;1.48;0.30;;;18.40;99.90;;;;;;5059376;28;20037;-74